sensor_id;sensor_type;location;lat;lon;timestamp;P1;durP1;ratioP1;P2;durP2;ratioP2
22922;SDS011;11627;51.322;22.816;2022-11-20T00:19:49;74.45;;;29.33;;
22922;SDS011;11627;51.322;22.816;2022-11-20T00:22:20;76.25;;;28.80;;
22922;SDS011;11627;51.322;22.816;2022-11-20T00:27:36;77.03;;;27.98;;
22922;SDS011;11627;51.322;22.816;2022-11-20T00:30:08;70.22;;;27.00;;
22922;SDS011;11627;51.322;22.816;2022-11-20T00:32:39;64.38;;;26.42;;
22922;SDS011;11627;51.322;22.816;2022-11-20T00:35:08;64.53;;;25.23;;
22922;SDS011;11627;51.322;22.816;2022-11-20T00:37:48;62.08;;;24.13;;
22922;SDS011;11627;51.322;22.816;2022-11-20T00:40:14;60.75;;;24.60;;
22922;SDS011;11627;51.322;22.816;2022-11-20T00:43:05;58.40;;;24.50;;
22922;SDS011;11627;51.322;22.816;2022-11-20T00:46:27;58.53;;;23.27;;
22922;SDS011;11627;51.322;22.816;2022-11-20T00:48:56;58.83;;;22.90;;
22922;SDS011;11627;51.322;22.816;2022-11-20T00:51:30;52.10;;;22.38;;
22922;SDS011;11627;51.322;22.816;2022-11-20T00:54:22;54.03;;;20.88;;
22922;SDS011;11627;51.322;22.816;2022-11-20T00:56:54;52.38;;;21.38;;
22922;SDS011;11627;51.322;22.816;2022-11-20T01:02:06;57.85;;;21.55;;
22922;SDS011;11627;51.322;22.816;2022-11-20T01:04:41;56.78;;;21.73;;
22922;SDS011;11627;51.322;22.816;2022-11-20T01:07:13;49.67;;;21.27;;
22922;SDS011;11627;51.322;22.816;2022-11-20T01:09:53;46.00;;;20.48;;
22922;SDS011;11627;51.322;22.816;2022-11-20T01:12:33;51.72;;;21.88;;
22922;SDS011;11627;51.322;22.816;2022-11-20T01:15:10;49.00;;;20.30;;
22922;SDS011;11627;51.322;22.816;2022-11-20T01:17:51;48.22;;;20.55;;
22922;SDS011;11627;51.322;22.816;2022-11-20T01:20:25;48.90;;;21.58;;
22922;SDS011;11627;51.322;22.816;2022-11-20T01:25:39;52.60;;;21.05;;
22922;SDS011;11627;51.322;22.816;2022-11-20T01:28:08;48.17;;;20.35;;
22922;SDS011;11627;51.322;22.816;2022-11-20T01:30:36;48.47;;;20.02;;
22922;SDS011;11627;51.322;22.816;2022-11-20T01:33:02;48.72;;;20.60;;
22922;SDS011;11627;51.322;22.816;2022-11-20T01:35:27;48.08;;;19.90;;
22922;SDS011;11627;51.322;22.816;2022-11-20T01:37:53;49.13;;;19.40;;
22922;SDS011;11627;51.322;22.816;2022-11-20T01:40:19;43.97;;;18.38;;
22922;SDS011;11627;51.322;22.816;2022-11-20T01:42:47;42.58;;;17.48;;
22922;SDS011;11627;51.322;22.816;2022-11-20T01:45:46;41.78;;;17.45;;
22922;SDS011;11627;51.322;22.816;2022-11-20T01:48:20;39.50;;;16.52;;
22922;SDS011;11627;51.322;22.816;2022-11-20T01:50:47;42.88;;;16.90;;
22922;SDS011;11627;51.322;22.816;2022-11-20T01:53:14;37.65;;;17.00;;
22922;SDS011;11627;51.322;22.816;2022-11-20T01:55:45;36.30;;;16.67;;
22922;SDS011;11627;51.322;22.816;2022-11-20T01:58:16;39.35;;;16.85;;
22922;SDS011;11627;51.322;22.816;2022-11-20T02:00:45;35.80;;;16.13;;
22922;SDS011;11627;51.322;22.816;2022-11-20T02:03:11;36.40;;;16.02;;
22922;SDS011;11627;51.322;22.816;2022-11-20T02:08:23;35.78;;;16.40;;
22922;SDS011;11627;51.322;22.816;2022-11-20T02:10:49;33.58;;;15.10;;
22922;SDS011;11627;51.322;22.816;2022-11-20T02:13:15;36.67;;;15.23;;
22922;SDS011;11627;51.322;22.816;2022-11-20T02:16:00;30.17;;;14.30;;
22922;SDS011;11627;51.322;22.816;2022-11-20T02:18:26;33.97;;;15.38;;
22922;SDS011;11627;51.322;22.816;2022-11-20T02:21:01;34.45;;;14.95;;
22922;SDS011;11627;51.322;22.816;2022-11-20T02:26:54;36.85;;;16.08;;
22922;SDS011;11627;51.322;22.816;2022-11-20T02:29:25;35.75;;;15.10;;
22922;SDS011;11627;51.322;22.816;2022-11-20T02:31:56;31.95;;;14.93;;
22922;SDS011;11627;51.322;22.816;2022-11-20T02:34:23;28.00;;;13.63;;
22922;SDS011;11627;51.322;22.816;2022-11-20T02:36:49;31.35;;;14.35;;
22922;SDS011;11627;51.322;22.816;2022-11-20T02:39:17;30.50;;;14.48;;
22922;SDS011;11627;51.322;22.816;2022-11-20T02:41:45;31.17;;;14.00;;
22922;SDS011;11627;51.322;22.816;2022-11-20T02:44:11;33.40;;;14.20;;
22922;SDS011;11627;51.322;22.816;2022-11-20T02:46:37;29.73;;;14.00;;
22922;SDS011;11627;51.322;22.816;2022-11-20T02:49:03;32.65;;;13.95;;
22922;SDS011;11627;51.322;22.816;2022-11-20T02:51:29;26.23;;;13.15;;
22922;SDS011;11627;51.322;22.816;2022-11-20T02:53:57;28.35;;;14.00;;
22922;SDS011;11627;51.322;22.816;2022-11-20T02:56:23;29.92;;;13.60;;
22922;SDS011;11627;51.322;22.816;2022-11-20T02:58:49;31.35;;;13.52;;
22922;SDS011;11627;51.322;22.816;2022-11-20T03:01:14;28.05;;;13.43;;
22922;SDS011;11627;51.322;22.816;2022-11-20T03:03:40;26.65;;;12.50;;
22922;SDS011;11627;51.322;22.816;2022-11-20T03:06:05;29.58;;;12.88;;
22922;SDS011;11627;51.322;22.816;2022-11-20T03:08:31;27.55;;;13.25;;
22922;SDS011;11627;51.322;22.816;2022-11-20T03:11:01;32.53;;;13.60;;
22922;SDS011;11627;51.322;22.816;2022-11-20T03:13:32;27.33;;;13.02;;
22922;SDS011;11627;51.322;22.816;2022-11-20T03:15:58;25.70;;;12.57;;
22922;SDS011;11627;51.322;22.816;2022-11-20T03:18:29;27.75;;;12.23;;
22922;SDS011;11627;51.322;22.816;2022-11-20T03:20:58;27.58;;;13.10;;
22922;SDS011;11627;51.322;22.816;2022-11-20T03:23:24;27.38;;;12.25;;
22922;SDS011;11627;51.322;22.816;2022-11-20T03:25:50;26.30;;;12.27;;
22922;SDS011;11627;51.322;22.816;2022-11-20T03:28:15;25.75;;;12.40;;
22922;SDS011;11627;51.322;22.816;2022-11-20T03:30:41;25.65;;;12.07;;
22922;SDS011;11627;51.322;22.816;2022-11-20T03:33:06;22.95;;;11.85;;
22922;SDS011;11627;51.322;22.816;2022-11-20T03:35:32;28.50;;;13.13;;
22922;SDS011;11627;51.322;22.816;2022-11-20T03:37:57;25.85;;;12.10;;
22922;SDS011;11627;51.322;22.816;2022-11-20T03:40:23;25.20;;;12.05;;
22922;SDS011;11627;51.322;22.816;2022-11-20T03:42:49;25.60;;;12.02;;
22922;SDS011;11627;51.322;22.816;2022-11-20T03:45:15;28.65;;;12.32;;
22922;SDS011;11627;51.322;22.816;2022-11-20T03:47:42;26.85;;;12.20;;
22922;SDS011;11627;51.322;22.816;2022-11-20T03:50:10;25.05;;;11.23;;
22922;SDS011;11627;51.322;22.816;2022-11-20T03:52:38;26.20;;;12.07;;
22922;SDS011;11627;51.322;22.816;2022-11-20T03:55:04;24.05;;;11.70;;
22922;SDS011;11627;51.322;22.816;2022-11-20T03:57:30;28.15;;;12.40;;
22922;SDS011;11627;51.322;22.816;2022-11-20T03:59:56;23.30;;;10.75;;
22922;SDS011;11627;51.322;22.816;2022-11-20T04:02:21;24.40;;;11.98;;
22922;SDS011;11627;51.322;22.816;2022-11-20T04:04:47;25.45;;;11.68;;
22922;SDS011;11627;51.322;22.816;2022-11-20T04:07:13;23.15;;;11.40;;
22922;SDS011;11627;51.322;22.816;2022-11-20T04:09:38;24.80;;;11.82;;
22922;SDS011;11627;51.322;22.816;2022-11-20T04:12:04;23.67;;;10.88;;
22922;SDS011;11627;51.322;22.816;2022-11-20T04:14:29;23.23;;;11.48;;
22922;SDS011;11627;51.322;22.816;2022-11-20T04:16:55;23.35;;;11.02;;
22922;SDS011;11627;51.322;22.816;2022-11-20T04:19:21;23.13;;;11.00;;
22922;SDS011;11627;51.322;22.816;2022-11-20T04:21:46;25.23;;;11.90;;
22922;SDS011;11627;51.322;22.816;2022-11-20T04:24:12;26.10;;;12.43;;
22922;SDS011;11627;51.322;22.816;2022-11-20T04:26:38;30.75;;;12.27;;
22922;SDS011;11627;51.322;22.816;2022-11-20T04:29:04;28.10;;;12.65;;
22922;SDS011;11627;51.322;22.816;2022-11-20T04:31:31;26.90;;;11.93;;
22922;SDS011;11627;51.322;22.816;2022-11-20T04:34:01;26.25;;;11.88;;
22922;SDS011;11627;51.322;22.816;2022-11-20T04:36:29;26.50;;;12.40;;
22922;SDS011;11627;51.322;22.816;2022-11-20T04:38:56;29.83;;;13.65;;
22922;SDS011;11627;51.322;22.816;2022-11-20T04:41:24;27.42;;;13.70;;
22922;SDS011;11627;51.322;22.816;2022-11-20T04:43:53;30.13;;;14.00;;
22922;SDS011;11627;51.322;22.816;2022-11-20T04:46:28;31.90;;;13.52;;
22922;SDS011;11627;51.322;22.816;2022-11-20T04:48:55;28.08;;;12.63;;
22922;SDS011;11627;51.322;22.816;2022-11-20T04:51:21;27.98;;;14.00;;
22922;SDS011;11627;51.322;22.816;2022-11-20T04:53:47;28.27;;;12.40;;
22922;SDS011;11627;51.322;22.816;2022-11-20T04:56:13;29.60;;;14.20;;
22922;SDS011;11627;51.322;22.816;2022-11-20T04:58:39;29.58;;;13.50;;
22922;SDS011;11627;51.322;22.816;2022-11-20T05:03:31;28.55;;;13.18;;
22922;SDS011;11627;51.322;22.816;2022-11-20T05:05:59;25.50;;;12.75;;
22922;SDS011;11627;51.322;22.816;2022-11-20T05:08:26;27.80;;;12.65;;
22922;SDS011;11627;51.322;22.816;2022-11-20T05:10:52;24.35;;;11.75;;
22922;SDS011;11627;51.322;22.816;2022-11-20T05:13:17;24.83;;;10.55;;
22922;SDS011;11627;51.322;22.816;2022-11-20T05:15:43;23.70;;;11.70;;
22922;SDS011;11627;51.322;22.816;2022-11-20T05:18:08;26.05;;;11.70;;
22922;SDS011;11627;51.322;22.816;2022-11-20T05:20:34;23.67;;;11.43;;
22922;SDS011;11627;51.322;22.816;2022-11-20T05:23:01;24.60;;;11.68;;
22922;SDS011;11627;51.322;22.816;2022-11-20T05:25:27;29.67;;;12.63;;
22922;SDS011;11627;51.322;22.816;2022-11-20T05:27:53;24.98;;;12.13;;
22922;SDS011;11627;51.322;22.816;2022-11-20T05:30:18;29.25;;;12.75;;
22922;SDS011;11627;51.322;22.816;2022-11-20T05:32:44;28.95;;;12.27;;
22922;SDS011;11627;51.322;22.816;2022-11-20T05:35:09;30.10;;;12.57;;
22922;SDS011;11627;51.322;22.816;2022-11-20T05:37:35;28.92;;;12.73;;
22922;SDS011;11627;51.322;22.816;2022-11-20T05:40:00;28.77;;;12.95;;
22922;SDS011;11627;51.322;22.816;2022-11-20T05:42:26;28.05;;;12.13;;
22922;SDS011;11627;51.322;22.816;2022-11-20T05:44:58;30.63;;;13.82;;
22922;SDS011;11627;51.322;22.816;2022-11-20T05:47:25;27.85;;;13.77;;
22922;SDS011;11627;51.322;22.816;2022-11-20T05:49:52;31.35;;;12.63;;
22922;SDS011;11627;51.322;22.816;2022-11-20T05:52:18;28.90;;;12.80;;
22922;SDS011;11627;51.322;22.816;2022-11-20T05:54:44;27.88;;;13.18;;
22922;SDS011;11627;51.322;22.816;2022-11-20T05:57:10;28.10;;;12.60;;
22922;SDS011;11627;51.322;22.816;2022-11-20T05:59:36;31.77;;;12.93;;
22922;SDS011;11627;51.322;22.816;2022-11-20T06:02:01;32.38;;;14.00;;
22922;SDS011;11627;51.322;22.816;2022-11-20T06:04:27;30.52;;;13.70;;
22922;SDS011;11627;51.322;22.816;2022-11-20T06:06:52;28.52;;;13.15;;
22922;SDS011;11627;51.322;22.816;2022-11-20T06:09:18;28.30;;;13.23;;
22922;SDS011;11627;51.322;22.816;2022-11-20T06:11:43;27.17;;;13.20;;
22922;SDS011;11627;51.322;22.816;2022-11-20T06:14:09;31.20;;;13.60;;
22922;SDS011;11627;51.322;22.816;2022-11-20T06:16:35;29.98;;;13.43;;
22922;SDS011;11627;51.322;22.816;2022-11-20T06:19:00;30.63;;;13.73;;
22922;SDS011;11627;51.322;22.816;2022-11-20T06:21:26;32.42;;;14.15;;
22922;SDS011;11627;51.322;22.816;2022-11-20T06:23:52;31.15;;;14.25;;
22922;SDS011;11627;51.322;22.816;2022-11-20T06:26:23;34.30;;;15.13;;
22922;SDS011;11627;51.322;22.816;2022-11-20T06:28:50;37.05;;;15.95;;
22922;SDS011;11627;51.322;22.816;2022-11-20T06:31:18;33.45;;;15.55;;
22922;SDS011;11627;51.322;22.816;2022-11-20T06:33:45;33.53;;;15.90;;
22922;SDS011;11627;51.322;22.816;2022-11-20T06:36:11;34.53;;;15.63;;
22922;SDS011;11627;51.322;22.816;2022-11-20T06:38:38;35.92;;;16.33;;
22922;SDS011;11627;51.322;22.816;2022-11-20T06:41:05;36.72;;;17.05;;
22922;SDS011;11627;51.322;22.816;2022-11-20T06:43:41;37.22;;;16.70;;
22922;SDS011;11627;51.322;22.816;2022-11-20T06:46:08;36.38;;;16.33;;
22922;SDS011;11627;51.322;22.816;2022-11-20T06:48:35;29.58;;;14.23;;
22922;SDS011;11627;51.322;22.816;2022-11-20T06:51:02;29.60;;;14.32;;
22922;SDS011;11627;51.322;22.816;2022-11-20T06:53:28;35.25;;;13.13;;
22922;SDS011;11627;51.322;22.816;2022-11-20T06:55:55;30.73;;;12.85;;
22922;SDS011;11627;51.322;22.816;2022-11-20T06:58:21;28.50;;;13.35;;
22922;SDS011;11627;51.322;22.816;2022-11-20T07:00:47;29.10;;;13.18;;
22922;SDS011;11627;51.322;22.816;2022-11-20T07:03:12;28.48;;;12.18;;
22922;SDS011;11627;51.322;22.816;2022-11-20T07:05:38;25.70;;;12.48;;
22922;SDS011;11627;51.322;22.816;2022-11-20T07:08:04;24.25;;;12.52;;
22922;SDS011;11627;51.322;22.816;2022-11-20T07:10:31;26.60;;;12.07;;
22922;SDS011;11627;51.322;22.816;2022-11-20T07:12:56;26.77;;;11.93;;
22922;SDS011;11627;51.322;22.816;2022-11-20T07:15:23;27.67;;;12.13;;
22922;SDS011;11627;51.322;22.816;2022-11-20T07:17:50;28.40;;;13.02;;
22922;SDS011;11627;51.322;22.816;2022-11-20T07:20:15;26.45;;;12.32;;
22922;SDS011;11627;51.322;22.816;2022-11-20T07:22:42;24.20;;;11.07;;
22922;SDS011;11627;51.322;22.816;2022-11-20T07:25:08;25.20;;;11.40;;
22922;SDS011;11627;51.322;22.816;2022-11-20T07:27:34;26.92;;;11.98;;
22922;SDS011;11627;51.322;22.816;2022-11-20T07:30:00;22.88;;;12.18;;
22922;SDS011;11627;51.322;22.816;2022-11-20T07:32:27;22.33;;;11.18;;
22922;SDS011;11627;51.322;22.816;2022-11-20T07:34:53;26.90;;;12.30;;
22922;SDS011;11627;51.322;22.816;2022-11-20T07:37:19;25.13;;;11.65;;
22922;SDS011;11627;51.322;22.816;2022-11-20T07:39:44;25.65;;;12.23;;
22922;SDS011;11627;51.322;22.816;2022-11-20T07:42:10;26.02;;;12.77;;
22922;SDS011;11627;51.322;22.816;2022-11-20T07:44:37;25.23;;;12.73;;
22922;SDS011;11627;51.322;22.816;2022-11-20T07:47:03;29.75;;;13.35;;
22922;SDS011;11627;51.322;22.816;2022-11-20T07:49:29;27.05;;;12.75;;
22922;SDS011;11627;51.322;22.816;2022-11-20T07:51:55;25.35;;;12.63;;
22922;SDS011;11627;51.322;22.816;2022-11-20T07:54:20;25.40;;;12.93;;
22922;SDS011;11627;51.322;22.816;2022-11-20T07:56:46;28.42;;;13.63;;
22922;SDS011;11627;51.322;22.816;2022-11-20T07:59:12;26.33;;;13.23;;
22922;SDS011;11627;51.322;22.816;2022-11-20T08:01:39;29.85;;;14.18;;
22922;SDS011;11627;51.322;22.816;2022-11-20T08:04:05;31.45;;;14.73;;
22922;SDS011;11627;51.322;22.816;2022-11-20T08:06:31;30.45;;;13.98;;
22922;SDS011;11627;51.322;22.816;2022-11-20T08:08:56;29.00;;;13.40;;
22922;SDS011;11627;51.322;22.816;2022-11-20T08:11:22;34.97;;;14.48;;
22922;SDS011;11627;51.322;22.816;2022-11-20T08:14:06;33.95;;;14.68;;
22922;SDS011;11627;51.322;22.816;2022-11-20T08:16:47;32.65;;;14.80;;
22922;SDS011;11627;51.322;22.816;2022-11-20T08:19:15;33.80;;;15.52;;
22922;SDS011;11627;51.322;22.816;2022-11-20T08:21:42;32.38;;;13.77;;
22922;SDS011;11627;51.322;22.816;2022-11-20T08:24:09;27.83;;;13.55;;
22922;SDS011;11627;51.322;22.816;2022-11-20T08:26:35;29.60;;;13.45;;
22922;SDS011;11627;51.322;22.816;2022-11-20T08:29:02;28.35;;;13.70;;
22922;SDS011;11627;51.322;22.816;2022-11-20T08:31:29;25.25;;;12.27;;
22922;SDS011;11627;51.322;22.816;2022-11-20T08:33:55;28.10;;;12.93;;
22922;SDS011;11627;51.322;22.816;2022-11-20T08:36:23;27.42;;;13.02;;
22922;SDS011;11627;51.322;22.816;2022-11-20T08:38:53;31.90;;;13.38;;
22922;SDS011;11627;51.322;22.816;2022-11-20T08:41:20;31.45;;;14.38;;
22922;SDS011;11627;51.322;22.816;2022-11-20T08:43:50;27.75;;;12.95;;
22922;SDS011;11627;51.322;22.816;2022-11-20T08:46:17;30.83;;;13.18;;
22922;SDS011;11627;51.322;22.816;2022-11-20T08:48:43;29.50;;;14.00;;
22922;SDS011;11627;51.322;22.816;2022-11-20T08:51:09;34.75;;;15.90;;
22922;SDS011;11627;51.322;22.816;2022-11-20T08:53:36;33.75;;;15.90;;
22922;SDS011;11627;51.322;22.816;2022-11-20T08:56:03;35.00;;;17.20;;
22922;SDS011;11627;51.322;22.816;2022-11-20T08:58:29;70.22;;;30.02;;
22922;SDS011;11627;51.322;22.816;2022-11-20T09:00:54;62.53;;;26.45;;
22922;SDS011;11627;51.322;22.816;2022-11-20T09:03:20;48.38;;;22.55;;
22922;SDS011;11627;51.322;22.816;2022-11-20T09:05:46;63.55;;;33.72;;
22922;SDS011;11627;51.322;22.816;2022-11-20T09:08:11;65.53;;;33.30;;
22922;SDS011;11627;51.322;22.816;2022-11-20T09:10:37;50.17;;;24.83;;
22922;SDS011;11627;51.322;22.816;2022-11-20T09:13:05;44.83;;;20.02;;
22922;SDS011;11627;51.322;22.816;2022-11-20T09:15:33;47.92;;;21.38;;
22922;SDS011;11627;51.322;22.816;2022-11-20T09:18:02;41.90;;;20.50;;
22922;SDS011;11627;51.322;22.816;2022-11-20T09:20:31;63.40;;;28.08;;
22922;SDS011;11627;51.322;22.816;2022-11-20T09:22:57;52.15;;;21.70;;
22922;SDS011;11627;51.322;22.816;2022-11-20T09:25:23;43.88;;;19.45;;
22922;SDS011;11627;51.322;22.816;2022-11-20T09:27:54;46.70;;;18.33;;
22922;SDS011;11627;51.322;22.816;2022-11-20T09:30:23;34.03;;;15.30;;
22922;SDS011;11627;51.322;22.816;2022-11-20T09:32:50;39.80;;;17.20;;
22922;SDS011;11627;51.322;22.816;2022-11-20T09:35:15;46.28;;;17.60;;
22922;SDS011;11627;51.322;22.816;2022-11-20T09:37:42;49.92;;;20.30;;
22922;SDS011;11627;51.322;22.816;2022-11-20T09:40:17;47.25;;;19.48;;
22922;SDS011;11627;51.322;22.816;2022-11-20T09:42:56;65.80;;;26.23;;
22922;SDS011;11627;51.322;22.816;2022-11-20T09:46:05;100.35;;;37.33;;
22922;SDS011;11627;51.322;22.816;2022-11-20T09:54:27;58.15;;;21.25;;
22922;SDS011;11627;51.322;22.816;2022-11-20T09:56:59;45.13;;;19.10;;
22922;SDS011;11627;51.322;22.816;2022-11-20T09:59:43;43.63;;;18.50;;
22922;SDS011;11627;51.322;22.816;2022-11-20T10:04:53;48.60;;;20.15;;
22922;SDS011;11627;51.322;22.816;2022-11-20T10:07:40;45.72;;;20.15;;
22922;SDS011;11627;51.322;22.816;2022-11-20T10:10:14;51.35;;;21.20;;
22922;SDS011;11627;51.322;22.816;2022-11-20T10:15:41;55.22;;;25.63;;
22922;SDS011;11627;51.322;22.816;2022-11-20T10:18:27;85.60;;;29.48;;
22922;SDS011;11627;51.322;22.816;2022-11-20T10:29:15;48.13;;;20.23;;
22922;SDS011;11627;51.322;22.816;2022-11-20T10:31:47;57.90;;;23.15;;
22922;SDS011;11627;51.322;22.816;2022-11-20T10:37:18;70.82;;;28.50;;
22922;SDS011;11627;51.322;22.816;2022-11-20T10:42:31;50.95;;;19.90;;
22922;SDS011;11627;51.322;22.816;2022-11-20T10:50:36;43.38;;;19.30;;
22922;SDS011;11627;51.322;22.816;2022-11-20T10:53:51;52.05;;;19.77;;
22922;SDS011;11627;51.322;22.816;2022-11-20T10:56:17;40.03;;;18.27;;
22922;SDS011;11627;51.322;22.816;2022-11-20T11:01:43;44.63;;;18.73;;
22922;SDS011;11627;51.322;22.816;2022-11-20T11:07:01;43.30;;;19.17;;
22922;SDS011;11627;51.322;22.816;2022-11-20T11:09:41;38.33;;;16.13;;
22922;SDS011;11627;51.322;22.816;2022-11-20T11:12:18;43.03;;;17.00;;
22922;SDS011;11627;51.322;22.816;2022-11-20T11:14:47;38.05;;;16.33;;
22922;SDS011;11627;51.322;22.816;2022-11-20T11:17:20;34.70;;;15.13;;
22922;SDS011;11627;51.322;22.816;2022-11-20T11:20:14;35.88;;;16.05;;
22922;SDS011;11627;51.322;22.816;2022-11-20T11:22:48;35.45;;;16.65;;
22922;SDS011;11627;51.322;22.816;2022-11-20T11:25:28;36.38;;;15.57;;
22922;SDS011;11627;51.322;22.816;2022-11-20T11:27:57;32.55;;;15.80;;
22922;SDS011;11627;51.322;22.816;2022-11-20T11:30:26;33.92;;;15.52;;
22922;SDS011;11627;51.322;22.816;2022-11-20T11:33:05;42.67;;;16.40;;
22922;SDS011;11627;51.322;22.816;2022-11-20T11:35:52;35.92;;;16.05;;
22922;SDS011;11627;51.322;22.816;2022-11-20T11:38:36;36.17;;;15.55;;
22922;SDS011;11627;51.322;22.816;2022-11-20T11:41:05;34.65;;;15.65;;
22922;SDS011;11627;51.322;22.816;2022-11-20T11:43:35;35.97;;;15.15;;
22922;SDS011;11627;51.322;22.816;2022-11-20T11:48:57;36.45;;;15.70;;
22922;SDS011;11627;51.322;22.816;2022-11-20T11:51:32;35.72;;;16.20;;
22922;SDS011;11627;51.322;22.816;2022-11-20T11:54:37;32.88;;;15.38;;
22922;SDS011;11627;51.322;22.816;2022-11-20T11:57:08;35.78;;;15.77;;
22922;SDS011;11627;51.322;22.816;2022-11-20T12:00:03;33.25;;;14.38;;
22922;SDS011;11627;51.322;22.816;2022-11-20T12:05:19;33.33;;;14.90;;
22922;SDS011;11627;51.322;22.816;2022-11-20T12:10:20;34.97;;;15.75;;
22922;SDS011;11627;51.322;22.816;2022-11-20T12:13:04;37.58;;;15.43;;
22922;SDS011;11627;51.322;22.816;2022-11-20T12:15:44;38.20;;;16.13;;
22922;SDS011;11627;51.322;22.816;2022-11-20T12:18:14;42.22;;;16.25;;
22922;SDS011;11627;51.322;22.816;2022-11-20T12:20:57;37.55;;;15.65;;
22922;SDS011;11627;51.322;22.816;2022-11-20T12:26:02;41.50;;;17.20;;
22922;SDS011;11627;51.322;22.816;2022-11-20T12:31:23;46.65;;;17.73;;
22922;SDS011;11627;51.322;22.816;2022-11-20T12:34:24;38.15;;;15.60;;
22922;SDS011;11627;51.322;22.816;2022-11-20T12:37:08;40.45;;;15.85;;
22922;SDS011;11627;51.322;22.816;2022-11-20T12:39:57;39.92;;;16.25;;
22922;SDS011;11627;51.322;22.816;2022-11-20T12:45:56;39.50;;;15.50;;
22922;SDS011;11627;51.322;22.816;2022-11-20T13:08:02;51.97;;;19.27;;
22922;SDS011;11627;51.322;22.816;2022-11-20T13:10:35;47.33;;;18.77;;
22922;SDS011;11627;51.322;22.816;2022-11-20T13:15:55;49.20;;;18.60;;
22922;SDS011;11627;51.322;22.816;2022-11-20T13:18:27;41.85;;;17.40;;
22922;SDS011;11627;51.322;22.816;2022-11-20T13:20:59;41.75;;;16.40;;
22922;SDS011;11627;51.322;22.816;2022-11-20T13:23:25;43.40;;;16.20;;
22922;SDS011;11627;51.322;22.816;2022-11-20T13:28:58;37.22;;;15.02;;
22922;SDS011;11627;51.322;22.816;2022-11-20T13:31:31;39.05;;;15.35;;
22922;SDS011;11627;51.322;22.816;2022-11-20T13:33:59;40.90;;;15.98;;
22922;SDS011;11627;51.322;22.816;2022-11-20T13:36:31;36.80;;;15.45;;
22922;SDS011;11627;51.322;22.816;2022-11-20T13:38:57;35.13;;;15.60;;
22922;SDS011;11627;51.322;22.816;2022-11-20T13:46:37;38.95;;;15.50;;
22922;SDS011;11627;51.322;22.816;2022-11-20T13:49:09;45.63;;;16.98;;
22922;SDS011;11627;51.322;22.816;2022-11-20T13:51:46;46.10;;;19.05;;
22922;SDS011;11627;51.322;22.816;2022-11-20T13:54:17;43.70;;;18.20;;
22922;SDS011;11627;51.322;22.816;2022-11-20T13:57:30;40.88;;;17.13;;
22922;SDS011;11627;51.322;22.816;2022-11-20T14:02:42;38.25;;;15.18;;
22922;SDS011;11627;51.322;22.816;2022-11-20T14:05:17;35.35;;;14.90;;
22922;SDS011;11627;51.322;22.816;2022-11-20T14:07:49;32.95;;;14.25;;
22922;SDS011;11627;51.322;22.816;2022-11-20T14:10:24;40.13;;;14.95;;
22922;SDS011;11627;51.322;22.816;2022-11-20T14:12:52;51.40;;;16.52;;
22922;SDS011;11627;51.322;22.816;2022-11-20T14:15:56;47.15;;;16.83;;
22922;SDS011;11627;51.322;22.816;2022-11-20T14:18:21;39.97;;;15.77;;
22922;SDS011;11627;51.322;22.816;2022-11-20T14:20:46;36.80;;;15.23;;
22922;SDS011;11627;51.322;22.816;2022-11-20T14:23:22;44.17;;;15.55;;
22922;SDS011;11627;51.322;22.816;2022-11-20T14:25:50;38.08;;;15.57;;
22922;SDS011;11627;51.322;22.816;2022-11-20T14:28:26;36.55;;;16.13;;
22922;SDS011;11627;51.322;22.816;2022-11-20T14:30:54;33.22;;;14.57;;
22922;SDS011;11627;51.322;22.816;2022-11-20T14:33:21;34.38;;;14.65;;
22922;SDS011;11627;51.322;22.816;2022-11-20T14:35:50;34.05;;;14.10;;
22922;SDS011;11627;51.322;22.816;2022-11-20T14:38:19;35.05;;;15.45;;
22922;SDS011;11627;51.322;22.816;2022-11-20T14:40:48;34.05;;;14.88;;
22922;SDS011;11627;51.322;22.816;2022-11-20T14:43:32;31.95;;;13.93;;
22922;SDS011;11627;51.322;22.816;2022-11-20T14:48:32;35.10;;;14.18;;
22922;SDS011;11627;51.322;22.816;2022-11-20T14:51:03;38.20;;;17.50;;
22922;SDS011;11627;51.322;22.816;2022-11-20T14:53:28;41.90;;;19.45;;
22922;SDS011;11627;51.322;22.816;2022-11-20T14:55:58;44.97;;;19.17;;
22922;SDS011;11627;51.322;22.816;2022-11-20T14:58:26;47.33;;;17.77;;
22922;SDS011;11627;51.322;22.816;2022-11-20T15:00:59;44.72;;;17.70;;
22922;SDS011;11627;51.322;22.816;2022-11-20T15:03:35;38.67;;;17.27;;
22922;SDS011;11627;51.322;22.816;2022-11-20T15:06:02;39.25;;;17.23;;
22922;SDS011;11627;51.322;22.816;2022-11-20T15:08:28;35.70;;;15.50;;
22922;SDS011;11627;51.322;22.816;2022-11-20T15:10:54;36.75;;;15.00;;
22922;SDS011;11627;51.322;22.816;2022-11-20T15:13:30;35.80;;;15.30;;
22922;SDS011;11627;51.322;22.816;2022-11-20T15:16:00;36.88;;;15.43;;
22922;SDS011;11627;51.322;22.816;2022-11-20T15:18:28;38.70;;;16.15;;
22922;SDS011;11627;51.322;22.816;2022-11-20T15:21:03;37.03;;;16.63;;
22922;SDS011;11627;51.322;22.816;2022-11-20T15:23:35;44.70;;;18.30;;
22922;SDS011;11627;51.322;22.816;2022-11-20T15:26:00;41.15;;;17.65;;
22922;SDS011;11627;51.322;22.816;2022-11-20T15:28:30;41.42;;;17.30;;
22922;SDS011;11627;51.322;22.816;2022-11-20T15:31:01;39.80;;;16.17;;
22922;SDS011;11627;51.322;22.816;2022-11-20T15:33:28;41.95;;;16.92;;
22922;SDS011;11627;51.322;22.816;2022-11-20T15:35:53;39.22;;;17.95;;
22922;SDS011;11627;51.322;22.816;2022-11-20T15:38:19;38.63;;;19.08;;
22922;SDS011;11627;51.322;22.816;2022-11-20T15:40:45;53.33;;;21.70;;
22922;SDS011;11627;51.322;22.816;2022-11-20T15:43:10;41.15;;;18.40;;
22922;SDS011;11627;51.322;22.816;2022-11-20T15:45:37;42.75;;;17.40;;
22922;SDS011;11627;51.322;22.816;2022-11-20T15:48:17;42.72;;;17.63;;
22922;SDS011;11627;51.322;22.816;2022-11-20T15:53:16;42.80;;;17.75;;
22922;SDS011;11627;51.322;22.816;2022-11-20T15:55:41;43.13;;;18.50;;
22922;SDS011;11627;51.322;22.816;2022-11-20T15:58:07;41.30;;;18.48;;
22922;SDS011;11627;51.322;22.816;2022-11-20T16:00:33;39.53;;;17.80;;
22922;SDS011;11627;51.322;22.816;2022-11-20T16:02:58;39.63;;;18.40;;
22922;SDS011;11627;51.322;22.816;2022-11-20T16:05:27;40.20;;;18.08;;
22922;SDS011;11627;51.322;22.816;2022-11-20T16:07:53;39.92;;;17.52;;
22922;SDS011;11627;51.322;22.816;2022-11-20T16:10:19;41.97;;;17.75;;
22922;SDS011;11627;51.322;22.816;2022-11-20T16:12:45;39.45;;;17.98;;
22922;SDS011;11627;51.322;22.816;2022-11-20T16:15:29;39.03;;;17.67;;
22922;SDS011;11627;51.322;22.816;2022-11-20T16:18:11;42.35;;;17.85;;
22922;SDS011;11627;51.322;22.816;2022-11-20T16:20:38;44.20;;;18.38;;
22922;SDS011;11627;51.322;22.816;2022-11-20T16:23:04;45.55;;;18.75;;
22922;SDS011;11627;51.322;22.816;2022-11-20T16:25:30;46.30;;;19.00;;
22922;SDS011;11627;51.322;22.816;2022-11-20T16:27:56;47.42;;;19.75;;
22922;SDS011;11627;51.322;22.816;2022-11-20T16:30:22;49.30;;;20.40;;
22922;SDS011;11627;51.322;22.816;2022-11-20T16:32:48;47.58;;;20.10;;